Sao Tome, Brazil
Current Conditions -  °F | °C
As of 9:00 AM on Saturday 25 Oct 2014 (Local Time) from SBNT Reporting Station
Scattered Clouds Scattered Clouds  
Wind Chill: 82°   Ceiling: Unl
Heat Index: 85°   Visibility: 6mi
Dew Point: 68°   Wind: 18mph
Humidity: 62%   Direction: 120°ESE
Pressure: 29.94"   Gusts: NA
Location:  5.97°S, 36.08°W
Report Text: SBNT 251200Z 12016KT 9999 SCT030 28/20 Q1014
Loading
Personal Weather Stations






























Interactive Weather Map
Tropical Storm Tracking
New forecast layout! Learn more

10-Day Weather Forecast

Advertisements
Track Severe Weather on mobile